sensor_id;sensor_type;location;lat;lon;timestamp;pressure;altitude;pressure_sealevel;temperature;humidity
40992;BME280;29633;49.168;9.848;2022-07-29T00:00:08;96715.66;;;26.58;39.20
40992;BME280;29633;49.168;9.848;2022-07-29T00:02:34;96718.75;;;26.55;39.16
40992;BME280;29633;49.168;9.848;2022-07-29T00:05:01;96730.28;;;26.49;39.15
40992;BME280;29633;49.168;9.848;2022-07-29T00:07:27;96725.41;;;26.46;39.36
40992;BME280;29633;49.168;9.848;2022-07-29T00:09:52;96726.69;;;26.43;39.36
40992;BME280;29633;49.168;9.848;2022-07-29T00:12:24;96727.59;;;26.37;39.72
40992;BME280;29633;49.168;9.848;2022-07-29T00:14:50;96721.50;;;26.30;39.68
40992;BME280;29633;49.168;9.848;2022-07-29T00:17:16;96721.59;;;26.23;39.73
40992;BME280;29633;49.168;9.848;2022-07-29T00:19:42;96727.97;;;26.22;39.86
40992;BME280;29633;49.168;9.848;2022-07-29T00:22:08;96721.22;;;26.20;39.84
40992;BME280;29633;49.168;9.848;2022-07-29T00:24:33;96714.94;;;26.14;39.76
40992;BME280;29633;49.168;9.848;2022-07-29T00:26:59;96721.13;;;26.08;40.09
40992;BME280;29633;49.168;9.848;2022-07-29T00:29:25;96724.22;;;26.05;39.96
40992;BME280;29633;49.168;9.848;2022-07-29T00:31:50;96713.22;;;26.02;40.24
40992;BME280;29633;49.168;9.848;2022-07-29T00:34:16;96712.03;;;25.98;40.28
40992;BME280;29633;49.168;9.848;2022-07-29T00:37:01;96718.47;;;25.90;40.35
40992;BME280;29633;49.168;9.848;2022-07-29T00:39:27;96705.19;;;25.90;40.65
40992;BME280;29633;49.168;9.848;2022-07-29T00:41:52;96713.44;;;25.82;40.52
40992;BME280;29633;49.168;9.848;2022-07-29T00:44:18;96710.50;;;25.72;40.66
40992;BME280;29633;49.168;9.848;2022-07-29T00:46:44;96704.81;;;25.68;40.93
40992;BME280;29633;49.168;9.848;2022-07-29T00:49:09;96705.97;;;25.72;40.99
40992;BME280;29633;49.168;9.848;2022-07-29T00:51:37;96707.84;;;25.72;41.10
40992;BME280;29633;49.168;9.848;2022-07-29T00:54:04;96699.44;;;25.75;41.29
40992;BME280;29633;49.168;9.848;2022-07-29T00:56:31;96706.78;;;25.73;41.52
40992;BME280;29633;49.168;9.848;2022-07-29T00:58:58;96718.47;;;25.72;41.43
40992;BME280;29633;49.168;9.848;2022-07-29T01:01:24;96709.06;;;25.69;41.59
40992;BME280;29633;49.168;9.848;2022-07-29T01:03:50;96710.91;;;25.69;41.75
40992;BME280;29633;49.168;9.848;2022-07-29T01:06:17;96712.25;;;25.60;41.88
40992;BME280;29633;49.168;9.848;2022-07-29T01:08:45;96709.66;;;25.53;41.99
40992;BME280;29633;49.168;9.848;2022-07-29T01:11:13;96710.47;;;25.54;42.00
40992;BME280;29633;49.168;9.848;2022-07-29T01:13:39;96698.63;;;25.50;41.95
40992;BME280;29633;49.168;9.848;2022-07-29T01:16:25;96704.56;;;25.45;41.67
40992;BME280;29633;49.168;9.848;2022-07-29T01:19:01;96704.41;;;25.40;42.19
40992;BME280;29633;49.168;9.848;2022-07-29T01:21:51;96700.19;;;25.32;42.43
40992;BME280;29633;49.168;9.848;2022-07-29T01:30:18;96687.78;;;25.02;42.06
40992;BME280;29633;49.168;9.848;2022-07-29T01:32:47;96690.25;;;25.03;42.20
40992;BME280;29633;49.168;9.848;2022-07-29T01:35:26;96692.50;;;25.00;42.64
40992;BME280;29633;49.168;9.848;2022-07-29T01:38:13;96688.66;;;24.95;42.68
40992;BME280;29633;49.168;9.848;2022-07-29T01:41:02;96681.97;;;24.86;43.21
40992;BME280;29633;49.168;9.848;2022-07-29T01:43:56;96682.78;;;24.87;43.03
40992;BME280;29633;49.168;9.848;2022-07-29T01:46:34;96682.00;;;24.80;43.08
40992;BME280;29633;49.168;9.848;2022-07-29T01:49:19;96681.41;;;24.78;43.07
40992;BME280;29633;49.168;9.848;2022-07-29T01:52:08;96685.50;;;24.74;43.53
40992;BME280;29633;49.168;9.848;2022-07-29T01:54:44;96687.78;;;24.70;43.48
40992;BME280;29633;49.168;9.848;2022-07-29T01:57:14;96682.09;;;24.67;43.74
40992;BME280;29633;49.168;9.848;2022-07-29T01:59:43;96684.56;;;24.62;43.49
40992;BME280;29633;49.168;9.848;2022-07-29T02:02:11;96678.06;;;24.58;43.79
40992;BME280;29633;49.168;9.848;2022-07-29T02:04:40;96676.81;;;24.60;43.79
40992;BME280;29633;49.168;9.848;2022-07-29T02:07:11;96676.22;;;24.58;43.78
40992;BME280;29633;49.168;9.848;2022-07-29T02:09:38;96680.16;;;24.42;43.61
40992;BME280;29633;49.168;9.848;2022-07-29T02:12:07;96670.78;;;24.46;43.78
40992;BME280;29633;49.168;9.848;2022-07-29T02:14:38;96671.22;;;24.43;44.23
40992;BME280;29633;49.168;9.848;2022-07-29T02:17:06;96667.97;;;24.41;44.18
40992;BME280;29633;49.168;9.848;2022-07-29T02:19:33;96676.97;;;24.34;44.13
40992;BME280;29633;49.168;9.848;2022-07-29T02:22:00;96668.63;;;24.30;44.20
40992;BME280;29633;49.168;9.848;2022-07-29T02:24:28;96672.94;;;24.25;44.30
40992;BME280;29633;49.168;9.848;2022-07-29T02:26:56;96677.63;;;24.23;44.49
40992;BME280;29633;49.168;9.848;2022-07-29T02:29:26;96673.78;;;24.19;44.75
40992;BME280;29633;49.168;9.848;2022-07-29T02:31:52;96675.81;;;24.17;44.73
40992;BME280;29633;49.168;9.848;2022-07-29T02:34:20;96677.88;;;24.15;45.05
40992;BME280;29633;49.168;9.848;2022-07-29T02:36:47;96681.91;;;24.11;45.09
40992;BME280;29633;49.168;9.848;2022-07-29T02:39:15;96676.84;;;24.09;44.80
40992;BME280;29633;49.168;9.848;2022-07-29T02:41:50;96678.28;;;24.05;45.28
40992;BME280;29633;49.168;9.848;2022-07-29T02:44:21;96672.59;;;24.01;45.20
40992;BME280;29633;49.168;9.848;2022-07-29T02:52:49;96672.44;;;23.77;45.00
40992;BME280;29633;49.168;9.848;2022-07-29T02:55:46;96668.19;;;23.76;45.38
40992;BME280;29633;49.168;9.848;2022-07-29T02:58:31;96666.59;;;23.68;45.27
40992;BME280;29633;49.168;9.848;2022-07-29T03:01:02;96671.91;;;23.62;45.21
40992;BME280;29633;49.168;9.848;2022-07-29T03:03:36;96671.28;;;23.60;45.52
40992;BME280;29633;49.168;9.848;2022-07-29T03:06:03;96673.53;;;23.56;45.54
40992;BME280;29633;49.168;9.848;2022-07-29T03:08:32;96680.25;;;23.52;45.84
40992;BME280;29633;49.168;9.848;2022-07-29T03:10:58;96670.09;;;23.42;45.65
40992;BME280;29633;49.168;9.848;2022-07-29T03:13:26;96672.50;;;23.37;45.84
40992;BME280;29633;49.168;9.848;2022-07-29T03:15:54;96671.50;;;23.32;45.79
40992;BME280;29633;49.168;9.848;2022-07-29T03:18:20;96667.44;;;23.29;45.88
40992;BME280;29633;49.168;9.848;2022-07-29T03:20:47;96667.44;;;23.29;46.04
40992;BME280;29633;49.168;9.848;2022-07-29T03:23:19;96667.66;;;23.21;45.93
40992;BME280;29633;49.168;9.848;2022-07-29T03:25:45;96671.94;;;23.22;45.83
40992;BME280;29633;49.168;9.848;2022-07-29T03:28:11;96668.25;;;23.17;46.26
40992;BME280;29633;49.168;9.848;2022-07-29T03:30:37;96667.03;;;23.13;46.24
40992;BME280;29633;49.168;9.848;2022-07-29T03:33:03;96665.63;;;23.10;46.31
40992;BME280;29633;49.168;9.848;2022-07-29T03:35:28;96655.63;;;23.12;46.44
40992;BME280;29633;49.168;9.848;2022-07-29T03:37:57;96668.25;;;23.10;46.56
40992;BME280;29633;49.168;9.848;2022-07-29T03:40:32;96669.28;;;23.09;46.55
40992;BME280;29633;49.168;9.848;2022-07-29T03:43:00;96672.31;;;23.06;46.96
40992;BME280;29633;49.168;9.848;2022-07-29T03:45:29;96663.78;;;23.04;46.84
40992;BME280;29633;49.168;9.848;2022-07-29T03:48:07;96671.09;;;23.02;46.87
40992;BME280;29633;49.168;9.848;2022-07-29T03:50:34;96670.28;;;22.95;46.87
40992;BME280;29633;49.168;9.848;2022-07-29T03:53:01;96678.00;;;22.90;46.77
40992;BME280;29633;49.168;9.848;2022-07-29T03:55:30;96678.81;;;22.90;47.05
40992;BME280;29633;49.168;9.848;2022-07-29T03:57:58;96670.88;;;22.90;46.88
40992;BME280;29633;49.168;9.848;2022-07-29T04:00:26;96674.97;;;22.93;46.94
40992;BME280;29633;49.168;9.848;2022-07-29T04:02:53;96676.59;;;22.94;46.70
40992;BME280;29633;49.168;9.848;2022-07-29T04:05:19;96676.19;;;22.90;46.89
40992;BME280;29633;49.168;9.848;2022-07-29T04:07:46;96678.00;;;22.90;47.05
40992;BME280;29633;49.168;9.848;2022-07-29T04:10:12;96678.00;;;22.90;46.98
40992;BME280;29633;49.168;9.848;2022-07-29T04:12:38;96682.88;;;22.86;47.11
40992;BME280;29633;49.168;9.848;2022-07-29T04:15:04;96685.53;;;22.86;47.01
40992;BME280;29633;49.168;9.848;2022-07-29T04:17:30;96680.63;;;22.83;47.38
40992;BME280;29633;49.168;9.848;2022-07-29T04:19:56;96690.41;;;22.83;47.38
40992;BME280;29633;49.168;9.848;2022-07-29T04:22:22;96688.16;;;22.80;47.63
40992;BME280;29633;49.168;9.848;2022-07-29T04:24:48;96684.69;;;22.73;47.54
40992;BME280;29633;49.168;9.848;2022-07-29T04:27:13;96685.66;;;22.65;47.77
40992;BME280;29633;49.168;9.848;2022-07-29T04:29:39;96687.72;;;22.63;47.72
40992;BME280;29633;49.168;9.848;2022-07-29T04:32:05;96682.00;;;22.66;47.80
40992;BME280;29633;49.168;9.848;2022-07-29T04:34:31;96686.31;;;22.67;47.76
40992;BME280;29633;49.168;9.848;2022-07-29T04:36:57;96678.00;;;22.70;47.95
40992;BME280;29633;49.168;9.848;2022-07-29T04:39:24;96683.28;;;22.70;48.08
40992;BME280;29633;49.168;9.848;2022-07-29T04:41:50;96678.00;;;22.70;48.09
40992;BME280;29633;49.168;9.848;2022-07-29T04:44:16;96678.81;;;22.71;48.48
40992;BME280;29633;49.168;9.848;2022-07-29T04:46:41;96679.81;;;22.70;48.64
40992;BME280;29633;49.168;9.848;2022-07-29T04:49:07;96676.34;;;22.76;48.42
40992;BME280;29633;49.168;9.848;2022-07-29T04:51:33;96676.59;;;22.81;48.31
40992;BME280;29633;49.168;9.848;2022-07-29T04:53:59;96673.34;;;22.85;48.53
40992;BME280;29633;49.168;9.848;2022-07-29T04:56:25;96676.41;;;22.89;48.58
40992;BME280;29633;49.168;9.848;2022-07-29T04:58:51;96684.50;;;22.94;48.25
40992;BME280;29633;49.168;9.848;2022-07-29T05:01:17;96686.38;;;23.00;48.68
40992;BME280;29633;49.168;9.848;2022-07-29T05:03:42;96680.25;;;23.06;48.29
40992;BME280;29633;49.168;9.848;2022-07-29T05:06:08;96683.72;;;23.13;48.67
40992;BME280;29633;49.168;9.848;2022-07-29T05:08:34;96682.09;;;23.19;48.25
40992;BME280;29633;49.168;9.848;2022-07-29T05:11:00;96686.75;;;23.23;48.03
40992;BME280;29633;49.168;9.848;2022-07-29T05:13:25;96687.97;;;23.27;47.94
40992;BME280;29633;49.168;9.848;2022-07-29T05:15:51;96694.31;;;23.33;48.07
40992;BME280;29633;49.168;9.848;2022-07-29T05:18:17;96689.00;;;23.33;48.28
40992;BME280;29633;49.168;9.848;2022-07-29T05:20:42;96689.41;;;23.36;48.24
40992;BME280;29633;49.168;9.848;2022-07-29T05:23:08;96695.72;;;23.42;47.99
40992;BME280;29633;49.168;9.848;2022-07-29T05:25:35;96695.53;;;23.43;48.09
40992;BME280;29633;49.168;9.848;2022-07-29T05:28:01;96700.19;;;23.48;47.58
40992;BME280;29633;49.168;9.848;2022-07-29T05:30:26;96694.28;;;23.52;47.45
40992;BME280;29633;49.168;9.848;2022-07-29T05:32:52;96696.72;;;23.61;47.75
40992;BME280;29633;49.168;9.848;2022-07-29T05:35:18;96702.81;;;23.68;47.18
40992;BME280;29633;49.168;9.848;2022-07-29T05:37:44;96695.88;;;23.73;47.30
40992;BME280;29633;49.168;9.848;2022-07-29T05:40:09;96704.84;;;23.79;47.17
40992;BME280;29633;49.168;9.848;2022-07-29T05:42:35;96707.28;;;23.87;47.08
40992;BME280;29633;49.168;9.848;2022-07-29T05:45:02;96705.41;;;23.94;47.24
40992;BME280;29633;49.168;9.848;2022-07-29T05:47:28;96713.72;;;24.04;47.40
40992;BME280;29633;49.168;9.848;2022-07-29T05:49:54;96711.88;;;24.11;46.93
40992;BME280;29633;49.168;9.848;2022-07-29T05:52:20;96714.09;;;24.21;46.79
40992;BME280;29633;49.168;9.848;2022-07-29T05:54:46;96709.41;;;24.29;47.04
40992;BME280;29633;49.168;9.848;2022-07-29T05:57:20;96717.13;;;24.37;47.00
40992;BME280;29633;49.168;9.848;2022-07-29T05:59:46;96712.38;;;24.46;46.69
40992;BME280;29633;49.168;9.848;2022-07-29T06:02:12;96721.47;;;24.57;46.51
40992;BME280;29633;49.168;9.848;2022-07-29T06:04:38;96713.28;;;24.65;46.31
40992;BME280;29633;49.168;9.848;2022-07-29T06:07:04;96716.50;;;24.73;46.06
40992;BME280;29633;49.168;9.848;2022-07-29T06:09:30;96712.78;;;24.81;45.87
40992;BME280;29633;49.168;9.848;2022-07-29T06:11:56;96718.91;;;24.88;46.03
40992;BME280;29633;49.168;9.848;2022-07-29T06:14:23;96722.31;;;24.95;45.50
40992;BME280;29633;49.168;9.848;2022-07-29T06:16:49;96724.94;;;25.02;45.86
40992;BME280;29633;49.168;9.848;2022-07-29T06:19:15;96723.84;;;25.09;45.55
40992;BME280;29633;49.168;9.848;2022-07-29T06:21:45;96728.09;;;25.17;45.35
40992;BME280;29633;49.168;9.848;2022-07-29T06:24:13;96720.28;;;25.22;45.58
40992;BME280;29633;49.168;9.848;2022-07-29T06:26:42;96725.75;;;25.27;45.57
40992;BME280;29633;49.168;9.848;2022-07-29T06:29:09;96717.97;;;25.32;45.58
40992;BME280;29633;49.168;9.848;2022-07-29T06:31:36;96712.81;;;25.37;45.59
40992;BME280;29633;49.168;9.848;2022-07-29T06:34:02;96718.88;;;25.44;45.84
40992;BME280;29633;49.168;9.848;2022-07-29T06:36:28;96718.81;;;25.51;45.94
40992;BME280;29633;49.168;9.848;2022-07-29T06:38:53;96715.72;;;25.60;46.04
40992;BME280;29633;49.168;9.848;2022-07-29T06:41:19;96713.56;;;25.69;46.04
40992;BME280;29633;49.168;9.848;2022-07-29T06:43:45;96720.00;;;25.79;45.82
40992;BME280;29633;49.168;9.848;2022-07-29T06:46:14;96715.22;;;25.88;45.81
40992;BME280;29633;49.168;9.848;2022-07-29T06:48:43;96709.47;;;25.91;45.81
40992;BME280;29633;49.168;9.848;2022-07-29T06:51:10;96713.47;;;26.00;45.56
40992;BME280;29633;49.168;9.848;2022-07-29T06:53:37;96713.91;;;25.97;45.75
40992;BME280;29633;49.168;9.848;2022-07-29T06:56:05;96720.97;;;26.03;45.74
40992;BME280;29633;49.168;9.848;2022-07-29T06:58:33;96720.31;;;26.08;45.29
40992;BME280;29633;49.168;9.848;2022-07-29T07:01:03;96725.78;;;26.13;45.50
40992;BME280;29633;49.168;9.848;2022-07-29T07:03:29;96729.81;;;26.22;45.56
40992;BME280;29633;49.168;9.848;2022-07-29T07:05:56;96731.78;;;26.26;45.71
40992;BME280;29633;49.168;9.848;2022-07-29T07:08:23;96731.34;;;26.29;45.52
40992;BME280;29633;49.168;9.848;2022-07-29T07:10:50;96737.41;;;26.36;45.48
40992;BME280;29633;49.168;9.848;2022-07-29T07:13:15;96725.22;;;26.29;45.54
40992;BME280;29633;49.168;9.848;2022-07-29T07:15:44;96725.59;;;26.32;45.55
40992;BME280;29633;49.168;9.848;2022-07-29T07:18:10;96731.25;;;26.36;45.40
40992;BME280;29633;49.168;9.848;2022-07-29T07:20:36;96734.66;;;26.43;45.04
40992;BME280;29633;49.168;9.848;2022-07-29T07:23:01;96729.09;;;26.44;45.05
40992;BME280;29633;49.168;9.848;2022-07-29T07:25:27;96734.94;;;26.53;44.63
40992;BME280;29633;49.168;9.848;2022-07-29T07:27:53;96737.38;;;26.55;44.74
40992;BME280;29633;49.168;9.848;2022-07-29T07:30:19;96735.09;;;26.58;44.46
40992;BME280;29633;49.168;9.848;2022-07-29T07:32:45;96731.38;;;26.59;44.44
40992;BME280;29633;49.168;9.848;2022-07-29T07:35:11;96732.91;;;26.67;44.41
40992;BME280;29633;49.168;9.848;2022-07-29T07:37:38;96727.41;;;26.80;44.34
40992;BME280;29633;49.168;9.848;2022-07-29T07:40:07;96728.38;;;26.85;44.17
40992;BME280;29633;49.168;9.848;2022-07-29T07:42:33;96729.91;;;26.93;44.18
40992;BME280;29633;49.168;9.848;2022-07-29T07:44:59;96727.28;;;27.05;44.14
40992;BME280;29633;49.168;9.848;2022-07-29T07:47:25;96729.03;;;27.11;44.09
40992;BME280;29633;49.168;9.848;2022-07-29T07:49:52;96731.84;;;27.16;44.25
40992;BME280;29633;49.168;9.848;2022-07-29T07:52:20;96731.03;;;27.15;44.18
40992;BME280;29633;49.168;9.848;2022-07-29T07:54:48;96733.13;;;27.25;44.06
40992;BME280;29633;49.168;9.848;2022-07-29T07:57:16;96728.59;;;27.25;44.38
40992;BME280;29633;49.168;9.848;2022-07-29T07:59:42;96732.91;;;27.26;44.23
40992;BME280;29633;49.168;9.848;2022-07-29T08:02:08;96728.75;;;27.30;44.43
40992;BME280;29633;49.168;9.848;2022-07-29T08:04:34;96730.47;;;27.36;44.35
40992;BME280;29633;49.168;9.848;2022-07-29T08:07:02;96728.97;;;27.40;44.27
40992;BME280;29633;49.168;9.848;2022-07-29T08:09:29;96731.81;;;27.46;43.94
40992;BME280;29633;49.168;9.848;2022-07-29T08:11:55;96734.91;;;27.54;43.76
40992;BME280;29633;49.168;9.848;2022-07-29T08:14:21;96729.00;;;27.64;43.95
40992;BME280;29633;49.168;9.848;2022-07-29T08:16:47;96721.50;;;27.72;43.71
40992;BME280;29633;49.168;9.848;2022-07-29T08:19:13;96726.22;;;27.82;43.43
40992;BME280;29633;49.168;9.848;2022-07-29T08:21:39;96725.31;;;27.88;43.24
40992;BME280;29633;49.168;9.848;2022-07-29T08:24:05;96727.63;;;27.96;43.31
40992;BME280;29633;49.168;9.848;2022-07-29T08:26:50;96731.22;;;28.02;43.25
40992;BME280;29633;49.168;9.848;2022-07-29T08:29:16;96730.72;;;28.05;42.73
40992;BME280;29633;49.168;9.848;2022-07-29T08:31:42;96732.13;;;28.07;42.93
40992;BME280;29633;49.168;9.848;2022-07-29T08:34:08;96727.41;;;28.09;42.57
40992;BME280;29633;49.168;9.848;2022-07-29T08:36:34;96739.31;;;28.18;42.66
40992;BME280;29633;49.168;9.848;2022-07-29T08:39:01;96737.44;;;28.30;42.15
40992;BME280;29633;49.168;9.848;2022-07-29T08:41:27;96740.91;;;28.43;42.17
40992;BME280;29633;49.168;9.848;2022-07-29T08:43:53;96741.66;;;28.55;41.93
40992;BME280;29633;49.168;9.848;2022-07-29T08:46:20;96733.97;;;28.70;42.09
40992;BME280;29633;49.168;9.848;2022-07-29T08:48:47;96744.84;;;28.80;41.98
40992;BME280;29633;49.168;9.848;2022-07-29T08:51:17;96733.78;;;28.88;41.47
40992;BME280;29633;49.168;9.848;2022-07-29T08:53:45;96733.25;;;29.03;41.50
40992;BME280;29633;49.168;9.848;2022-07-29T08:56:15;96733.53;;;29.18;41.43
40992;BME280;29633;49.168;9.848;2022-07-29T08:58:43;96743.59;;;29.27;41.30
40992;BME280;29633;49.168;9.848;2022-07-29T09:01:09;96742.38;;;29.35;41.10
40992;BME280;29633;49.168;9.848;2022-07-29T09:03:38;96734.78;;;29.44;40.80
40992;BME280;29633;49.168;9.848;2022-07-29T09:06:05;96731.13;;;29.50;40.91
40992;BME280;29633;49.168;9.848;2022-07-29T09:08:32;96731.56;;;29.58;41.00
40992;BME280;29633;49.168;9.848;2022-07-29T09:11:01;96736.13;;;29.63;40.91
40992;BME280;29633;49.168;9.848;2022-07-29T09:13:27;96733.47;;;29.63;41.01
40992;BME280;29633;49.168;9.848;2022-07-29T09:15:53;96732.69;;;29.62;40.77
40992;BME280;29633;49.168;9.848;2022-07-29T09:18:40;96725.94;;;29.60;40.90
40992;BME280;29633;49.168;9.848;2022-07-29T09:21:09;96720.03;;;29.58;40.73
40992;BME280;29633;49.168;9.848;2022-07-29T09:24:20;96720.84;;;29.58;40.66
40992;BME280;29633;49.168;9.848;2022-07-29T09:26:46;96719.38;;;29.67;40.70
40992;BME280;29633;49.168;9.848;2022-07-29T09:29:18;96721.47;;;29.82;40.60
40992;BME280;29633;49.168;9.848;2022-07-29T09:31:47;96710.38;;;29.90;40.15
40992;BME280;29633;49.168;9.848;2022-07-29T09:34:24;96709.34;;;29.91;39.87
40992;BME280;29633;49.168;9.848;2022-07-29T09:36:52;96709.97;;;29.98;40.34
40992;BME280;29633;49.168;9.848;2022-07-29T09:39:39;96710.91;;;30.09;40.20
40992;BME280;29633;49.168;9.848;2022-07-29T09:42:13;96711.34;;;30.22;39.90
40992;BME280;29633;49.168;9.848;2022-07-29T09:44:52;96715.84;;;30.39;39.75
40992;BME280;29633;49.168;9.848;2022-07-29T09:47:19;96713.03;;;30.50;39.79
40992;BME280;29633;49.168;9.848;2022-07-29T09:49:59;96707.88;;;30.65;39.48
40992;BME280;29633;49.168;9.848;2022-07-29T09:52:27;96711.75;;;30.80;39.36
40992;BME280;29633;49.168;9.848;2022-07-29T09:54:53;96707.28;;;30.85;39.31
40992;BME280;29633;49.168;9.848;2022-07-29T09:57:28;96707.09;;;30.97;39.38
40992;BME280;29633;49.168;9.848;2022-07-29T10:02:36;96705.41;;;31.12;38.81
40992;BME280;29633;49.168;9.848;2022-07-29T10:05:05;96704.34;;;31.13;38.68
40992;BME280;29633;49.168;9.848;2022-07-29T10:07:46;96708.66;;;31.14;38.89
40992;BME280;29633;49.168;9.848;2022-07-29T10:12:52;96704.44;;;30.97;39.04
40992;BME280;29633;49.168;9.848;2022-07-29T10:15:18;96701.59;;;31.03;38.66
40992;BME280;29633;49.168;9.848;2022-07-29T10:17:45;96697.34;;;31.07;38.78
40992;BME280;29633;49.168;9.848;2022-07-29T10:20:11;96688.44;;;31.02;38.79
40992;BME280;29633;49.168;9.848;2022-07-29T10:22:37;96695.44;;;31.03;38.55
40992;BME280;29633;49.168;9.848;2022-07-29T10:25:04;96699.16;;;31.02;38.47
40992;BME280;29633;49.168;9.848;2022-07-29T10:27:29;96694.09;;;31.05;38.92
40992;BME280;29633;49.168;9.848;2022-07-29T10:29:55;96694.69;;;31.12;38.81
40992;BME280;29633;49.168;9.848;2022-07-29T10:32:27;96703.63;;;31.23;38.64
40992;BME280;29633;49.168;9.848;2022-07-29T10:44:09;96713.91;;;31.04;38.49
40992;BME280;29633;49.168;9.848;2022-07-29T10:46:40;96710.16;;;31.05;38.73
40992;BME280;29633;49.168;9.848;2022-07-29T10:49:16;96707.03;;;31.13;38.56
40992;BME280;29633;49.168;9.848;2022-07-29T11:05:16;96677.34;;;31.52;38.09
40992;BME280;29633;49.168;9.848;2022-07-29T11:10:38;96677.00;;;31.43;38.28
40992;BME280;29633;49.168;9.848;2022-07-29T11:13:04;96671.13;;;31.46;38.02
40992;BME280;29633;49.168;9.848;2022-07-29T11:15:56;96674.69;;;31.52;38.24
40992;BME280;29633;49.168;9.848;2022-07-29T11:18:23;96668.34;;;31.68;38.30
40992;BME280;29633;49.168;9.848;2022-07-29T11:20:50;96667.88;;;31.81;37.91
40992;BME280;29633;49.168;9.848;2022-07-29T11:23:33;96676.25;;;31.95;37.53
40992;BME280;29633;49.168;9.848;2022-07-29T11:26:17;96677.66;;;32.02;37.72
40992;BME280;29633;49.168;9.848;2022-07-29T11:29:20;96675.53;;;32.04;36.99
40992;BME280;29633;49.168;9.848;2022-07-29T11:31:51;96676.34;;;32.05;37.13
40992;BME280;29633;49.168;9.848;2022-07-29T11:34:32;96677.41;;;32.04;36.97
40992;BME280;29633;49.168;9.848;2022-07-29T11:39:47;96675.09;;;32.23;37.11
40992;BME280;29633;49.168;9.848;2022-07-29T11:45:21;96668.72;;;32.44;37.46
40992;BME280;29633;49.168;9.848;2022-07-29T11:50:27;96671.47;;;32.64;37.12
40992;BME280;29633;49.168;9.848;2022-07-29T11:52:53;96677.69;;;32.70;37.55
40992;BME280;29633;49.168;9.848;2022-07-29T11:55:22;96679.56;;;32.74;37.53
40992;BME280;29633;49.168;9.848;2022-07-29T11:57:57;96668.81;;;32.74;37.20
40992;BME280;29633;49.168;9.848;2022-07-29T12:00:35;96666.13;;;32.69;37.39
40992;BME280;29633;49.168;9.848;2022-07-29T12:03:05;96669.63;;;32.70;37.12
40992;BME280;29633;49.168;9.848;2022-07-29T12:05:43;96670.69;;;32.63;37.15
40992;BME280;29633;49.168;9.848;2022-07-29T12:08:22;96666.59;;;32.56;37.12
40992;BME280;29633;49.168;9.848;2022-07-29T12:10:52;96662.84;;;32.57;37.45
40992;BME280;29633;49.168;9.848;2022-07-29T12:13:21;96655.91;;;32.61;36.90
40992;BME280;29633;49.168;9.848;2022-07-29T12:15:55;96648.38;;;32.58;37.25
40992;BME280;29633;49.168;9.848;2022-07-29T12:18:25;96642.44;;;32.56;37.09
40992;BME280;29633;49.168;9.848;2022-07-29T12:21:02;96648.09;;;32.54;37.09
40992;BME280;29633;49.168;9.848;2022-07-29T12:23:32;96648.34;;;32.53;37.10
40992;BME280;29633;49.168;9.848;2022-07-29T12:25:58;96649.44;;;32.52;36.81
40992;BME280;29633;49.168;9.848;2022-07-29T12:28:25;96645.66;;;32.48;36.84
40992;BME280;29633;49.168;9.848;2022-07-29T12:30:51;96651.56;;;32.45;36.70
40992;BME280;29633;49.168;9.848;2022-07-29T12:33:24;96653.16;;;32.46;37.04
40992;BME280;29633;49.168;9.848;2022-07-29T12:35:54;96655.59;;;32.47;36.77
40992;BME280;29633;49.168;9.848;2022-07-29T12:38:21;96659.88;;;32.43;37.18
40992;BME280;29633;49.168;9.848;2022-07-29T12:40:48;96660.13;;;32.42;37.15
40992;BME280;29633;49.168;9.848;2022-07-29T12:43:20;96667.63;;;32.30;38.25
40992;BME280;29633;49.168;9.848;2022-07-29T12:45:51;96668.59;;;32.08;39.18
40992;BME280;29633;49.168;9.848;2022-07-29T12:51:01;96648.06;;;31.82;40.33
40992;BME280;29633;49.168;9.848;2022-07-29T12:53:28;96649.13;;;31.81;40.36
40992;BME280;29633;49.168;9.848;2022-07-29T12:55:55;96647.00;;;31.83;40.54
40992;BME280;29633;49.168;9.848;2022-07-29T13:01:07;96647.00;;;31.83;41.12
40992;BME280;29633;49.168;9.848;2022-07-29T13:03:52;96643.75;;;31.81;41.06
40992;BME280;29633;49.168;9.848;2022-07-29T13:06:45;96647.22;;;31.77;41.97
40992;BME280;29633;49.168;9.848;2022-07-29T13:09:12;96651.25;;;31.79;41.53
40992;BME280;29633;49.168;9.848;2022-07-29T13:11:47;96648.25;;;31.70;41.24
40992;BME280;29633;49.168;9.848;2022-07-29T13:17:17;96646.09;;;31.67;42.06
40992;BME280;29633;49.168;9.848;2022-07-29T13:20:13;96647.44;;;31.65;41.38
40992;BME280;29633;49.168;9.848;2022-07-29T13:22:41;96641.00;;;31.66;41.54
40992;BME280;29633;49.168;9.848;2022-07-29T13:25:09;96636.97;;;31.63;41.16
40992;BME280;29633;49.168;9.848;2022-07-29T13:27:37;96641.78;;;31.61;40.71
40992;BME280;29633;49.168;9.848;2022-07-29T13:30:07;96644.69;;;31.55;39.92
40992;BME280;29633;49.168;9.848;2022-07-29T13:32:34;96639.50;;;31.48;39.78
40992;BME280;29633;49.168;9.848;2022-07-29T13:35:06;96639.75;;;31.42;39.81
40992;BME280;29633;49.168;9.848;2022-07-29T13:37:34;96640.78;;;31.36;39.85
40992;BME280;29633;49.168;9.848;2022-07-29T13:40:01;96642.91;;;31.34;39.55
40992;BME280;29633;49.168;9.848;2022-07-29T13:42:28;96634.88;;;31.34;39.24
40992;BME280;29633;49.168;9.848;2022-07-29T13:44:54;96634.31;;;31.32;39.54
40992;BME280;29633;49.168;9.848;2022-07-29T13:47:21;96640.09;;;31.18;39.18
40992;BME280;29633;49.168;9.848;2022-07-29T13:49:48;96642.97;;;31.07;38.98
40992;BME280;29633;49.168;9.848;2022-07-29T13:52:14;96632.97;;;30.97;39.29
40992;BME280;29633;49.168;9.848;2022-07-29T13:54:41;96635.31;;;30.94;39.14
40992;BME280;29633;49.168;9.848;2022-07-29T13:57:08;96639.31;;;30.91;39.02
40992;BME280;29633;49.168;9.848;2022-07-29T13:59:34;96629.66;;;30.85;39.34
40992;BME280;29633;49.168;9.848;2022-07-29T14:01:59;96629.06;;;30.83;39.31
40992;BME280;29633;49.168;9.848;2022-07-29T14:04:25;96627.50;;;30.82;38.95
40992;BME280;29633;49.168;9.848;2022-07-29T14:06:51;96634.88;;;30.75;38.66
40992;BME280;29633;49.168;9.848;2022-07-29T14:09:18;96634.28;;;30.68;38.77